PGT1548 LTBJ-LTFJ
Flight info
| Callsign | PGT1548 |
|---|---|
| Flight time | 0h 44m |
| Altitude | 31000 |
| Route | BERGO UG80 DUGLA UY371 VUTZO |
| Aircraft | A21N/M-SDE2E3FGHIRWXY/LB1 |
Departure
| Time | 2026-05-03 22:44 |
|---|---|
| Airport | Adnan Menderes International Airport (LTBJ) |
Arrival
| Time | 2026-05-03 23:28 |
|---|---|
| Airport | Istanbul Sabiha Gökçen International Airport (LTFJ) |
| Time | Latitude | Longitude | Altitude | Speed | Heading |
|---|---|---|---|---|---|
| 2026-05-03 22:08 | 38.29354 | 27.15042 | 417 ft | 0 kts | 257° |
| 2026-05-03 22:33 | 38.29357 | 27.15060 | 406 ft | 4 kts | 248° |
| 2026-05-03 22:33 | 38.29371 | 27.15089 | 406 ft | 4 kts | 226° |
| 2026-05-03 22:33 | 38.29392 | 27.15108 | 408 ft | 4 kts | 195° |
| 2026-05-03 22:34 | 38.29410 | 27.15110 | 407 ft | 0 kts | 166° |
| 2026-05-03 22:37 | 38.29397 | 27.15114 | 408 ft | 3 kts | 166° |
| 2026-05-03 22:37 | 38.29366 | 27.15124 | 410 ft | 6 kts | 166° |
| 2026-05-03 22:37 | 38.29317 | 27.15138 | 410 ft | 8 kts | 167° |
| 2026-05-03 22:37 | 38.29257 | 27.15156 | 411 ft | 5 kts | 166° |
| 2026-05-03 22:38 | 38.29216 | 27.15169 | 410 ft | 7 kts | 166° |
| 2026-05-03 22:38 | 38.29158 | 27.15186 | 410 ft | 10 kts | 166° |
| 2026-05-03 22:38 | 38.29085 | 27.15208 | 415 ft | 12 kts | 167° |
| 2026-05-03 22:38 | 38.29030 | 27.15225 | 415 ft | 5 kts | 156° |
| 2026-05-03 22:39 | 38.29016 | 27.15270 | 414 ft | 7 kts | 96° |
| 2026-05-03 22:39 | 38.28973 | 27.15308 | 415 ft | 9 kts | 169° |
| 2026-05-03 22:39 | 38.28898 | 27.15331 | 412 ft | 13 kts | 166° |
| 2026-05-03 22:39 | 38.28799 | 27.15361 | 417 ft | 16 kts | 166° |
| 2026-05-03 22:40 | 38.28680 | 27.15397 | 418 ft | 19 kts | 166° |
| 2026-05-03 22:40 | 38.28603 | 27.15420 | 420 ft | 10 kts | 166° |
| 2026-05-03 22:40 | 38.28527 | 27.15443 | 419 ft | 12 kts | 166° |
| 2026-05-03 22:40 | 38.28437 | 27.15471 | 417 ft | 15 kts | 166° |
| 2026-05-03 22:41 | 38.28331 | 27.15502 | 422 ft | 17 kts | 166° |
| 2026-05-03 22:41 | 38.28213 | 27.15538 | 421 ft | 18 kts | 166° |
| 2026-05-03 22:41 | 38.28131 | 27.15563 | 423 ft | 9 kts | 166° |
| 2026-05-03 22:41 | 38.28096 | 27.15597 | 423 ft | 7 kts | 90° |
| 2026-05-03 22:42 | 38.28107 | 27.15667 | 417 ft | 9 kts | 77° |
| 2026-05-03 22:42 | 38.28121 | 27.15742 | 420 ft | 3 kts | 77° |
| 2026-05-03 22:42 | 38.28128 | 27.15778 | 415 ft | 5 kts | 69° |
| 2026-05-03 22:42 | 38.28164 | 27.15804 | 423 ft | 8 kts | 358° |
| 2026-05-03 22:43 | 38.28227 | 27.15787 | 426 ft | 10 kts | 347° |
| 2026-05-03 22:43 | 38.28333 | 27.15754 | 415 ft | 35 kts | 346° |
| 2026-05-03 22:43 | 38.28786 | 27.15618 | 423 ft | 96 kts | 347° |
| 2026-05-03 22:43 | 38.29583 | 27.15378 | 476 ft | 132 kts | 346° |
| 2026-05-03 22:44 | 38.30444 | 27.15087 | 1035 ft | 128 kts | 347° |
| 2026-05-03 22:44 | 38.31357 | 27.14885 | 1401 ft | 139 kts | 343° |
| 2026-05-03 22:44 | 38.32313 | 27.14513 | 1827 ft | 151 kts | 350° |
| 2026-05-03 22:44 | 38.33421 | 27.14231 | 2281 ft | 174 kts | 350° |
| 2026-05-03 22:45 | 38.34720 | 27.13891 | 2722 ft | 207 kts | 351° |
| 2026-05-03 22:45 | 38.36199 | 27.13501 | 3403 ft | 225 kts | 351° |
| 2026-05-03 22:45 | 38.37754 | 27.13082 | 4393 ft | 230 kts | 352° |
| 2026-05-03 22:45 | 38.39331 | 27.12659 | 5396 ft | 234 kts | 352° |
| 2026-05-03 22:46 | 38.40932 | 27.12190 | 6372 ft | 239 kts | 351° |
| 2026-05-03 22:46 | 38.42568 | 27.11694 | 7247 ft | 245 kts | 350° |
| 2026-05-03 22:46 | 38.44214 | 27.11193 | 8207 ft | 248 kts | 350° |
| 2026-05-03 22:46 | 38.45912 | 27.10677 | 9200 ft | 252 kts | 349° |
| 2026-05-03 22:47 | 38.47633 | 27.10154 | 10163 ft | 257 kts | 349° |
| 2026-05-03 22:47 | 38.49455 | 27.09603 | 10577 ft | 281 kts | 348° |
| 2026-05-03 22:47 | 38.51446 | 27.08999 | 10893 ft | 305 kts | 348° |
| 2026-05-03 22:47 | 38.53587 | 27.08348 | 11184 ft | 328 kts | 348° |
| 2026-05-03 22:48 | 38.55872 | 27.07654 | 11639 ft | 343 kts | 348° |
| 2026-05-03 22:48 | 38.58216 | 27.06942 | 12383 ft | 349 kts | 348° |
| 2026-05-03 22:48 | 38.60609 | 27.06340 | 13169 ft | 351 kts | 355° |
| 2026-05-03 22:48 | 38.63058 | 27.06410 | 13905 ft | 354 kts | 7° |
| 2026-05-03 22:49 | 38.65512 | 27.06849 | 14524 ft | 358 kts | 8° |
| 2026-05-03 22:49 | 38.67960 | 27.07322 | 15114 ft | 363 kts | 8° |
| 2026-05-03 22:49 | 38.70475 | 27.07805 | 15681 ft | 367 kts | 8° |
| 2026-05-03 22:49 | 38.73022 | 27.08286 | 16205 ft | 373 kts | 8° |
| 2026-05-03 22:50 | 38.75609 | 27.08767 | 16744 ft | 378 kts | 8° |
| 2026-05-03 22:50 | 38.78226 | 27.09247 | 17298 ft | 383 kts | 8° |
| 2026-05-03 22:50 | 38.80879 | 27.09739 | 17836 ft | 387 kts | 8° |
| 2026-05-03 22:50 | 38.83562 | 27.10236 | 18368 ft | 390 kts | 8° |
| 2026-05-03 22:51 | 38.86264 | 27.10737 | 18844 ft | 394 kts | 8° |
| 2026-05-03 22:51 | 38.88990 | 27.11243 | 19303 ft | 397 kts | 9° |
| 2026-05-03 22:51 | 38.91731 | 27.11753 | 19780 ft | 400 kts | 9° |
| 2026-05-03 22:51 | 38.94504 | 27.12268 | 20238 ft | 403 kts | 9° |
| 2026-05-03 22:52 | 38.97295 | 27.12784 | 20702 ft | 407 kts | 9° |
| 2026-05-03 22:52 | 39.00100 | 27.13304 | 21177 ft | 409 kts | 9° |
| 2026-05-03 22:52 | 39.02932 | 27.13823 | 21644 ft | 412 kts | 9° |
| 2026-05-03 22:52 | 39.05787 | 27.14341 | 22109 ft | 416 kts | 9° |
| 2026-05-03 22:53 | 39.08668 | 27.14862 | 22591 ft | 419 kts | 9° |
| 2026-05-03 22:53 | 39.11557 | 27.15391 | 23114 ft | 420 kts | 10° |
| 2026-05-03 22:53 | 39.14424 | 27.15918 | 23626 ft | 422 kts | 10° |
| 2026-05-03 22:53 | 39.17379 | 27.16461 | 24010 ft | 425 kts | 10° |
| 2026-05-03 22:54 | 39.20307 | 27.16997 | 24450 ft | 425 kts | 10° |
| 2026-05-03 22:54 | 39.23258 | 27.17534 | 24761 ft | 430 kts | 9° |
| 2026-05-03 22:54 | 39.26196 | 27.18062 | 25094 ft | 433 kts | 9° |
| 2026-05-03 22:54 | 39.29190 | 27.18603 | 25409 ft | 435 kts | 9° |
| 2026-05-03 22:55 | 39.32203 | 27.19154 | 25673 ft | 438 kts | 10° |
| 2026-05-03 22:55 | 39.35232 | 27.19714 | 25939 ft | 439 kts | 10° |
| 2026-05-03 22:55 | 39.38248 | 27.20267 | 26199 ft | 438 kts | 10° |
| 2026-05-03 22:55 | 39.41278 | 27.20826 | 26453 ft | 440 kts | 10° |
| 2026-05-03 22:56 | 39.44277 | 27.21378 | 26706 ft | 440 kts | 10° |
| 2026-05-03 22:56 | 39.47299 | 27.21936 | 26971 ft | 438 kts | 11° |
| 2026-05-03 22:56 | 39.50301 | 27.22635 | 27051 ft | 440 kts | 17° |
| 2026-05-03 22:56 | 39.53226 | 27.23778 | 27045 ft | 438 kts | 20° |
| 2026-05-03 22:57 | 39.56118 | 27.24980 | 27032 ft | 436 kts | 20° |
| 2026-05-03 22:57 | 39.59026 | 27.26192 | 27014 ft | 440 kts | 20° |
| 2026-05-03 22:57 | 39.61938 | 27.27391 | 27008 ft | 436 kts | 20° |
| 2026-05-03 22:57 | 39.64835 | 27.28578 | 27009 ft | 437 kts | 19° |
| 2026-05-03 22:58 | 39.67757 | 27.29750 | 27007 ft | 439 kts | 19° |
| 2026-05-03 22:58 | 39.70692 | 27.30926 | 27011 ft | 443 kts | 19° |
| 2026-05-03 22:58 | 39.73634 | 27.32116 | 27012 ft | 442 kts | 19° |
| 2026-05-03 22:58 | 39.76547 | 27.33308 | 27018 ft | 436 kts | 20° |
| 2026-05-03 22:59 | 39.79442 | 27.34503 | 27023 ft | 441 kts | 20° |
| 2026-05-03 22:59 | 39.82383 | 27.35718 | 27013 ft | 444 kts | 19° |
| 2026-05-03 22:59 | 39.85322 | 27.36926 | 27013 ft | 443 kts | 20° |
| 2026-05-03 22:59 | 39.88275 | 27.38139 | 27009 ft | 446 kts | 19° |
| 2026-05-03 23:00 | 39.91237 | 27.39367 | 27019 ft | 447 kts | 20° |
| 2026-05-03 23:00 | 39.94192 | 27.40601 | 27020 ft | 446 kts | 20° |
| 2026-05-03 23:00 | 39.96150 | 27.41421 | 27020 ft | 446 kts | 19° |
| 2026-05-03 23:00 | 40.00070 | 27.43048 | 27022 ft | 446 kts | 19° |
| 2026-05-03 23:01 | 40.03028 | 27.44262 | 27020 ft | 445 kts | 19° |
| 2026-05-03 23:01 | 40.05966 | 27.45472 | 27013 ft | 439 kts | 20° |
| 2026-05-03 23:01 | 40.08902 | 27.46695 | 27020 ft | 446 kts | 20° |
| 2026-05-03 23:01 | 40.11870 | 27.47934 | 27020 ft | 448 kts | 20° |
| 2026-05-03 23:02 | 40.13838 | 27.48751 | 27018 ft | 447 kts | 20° |
| 2026-05-03 23:02 | 40.16833 | 27.49996 | 27014 ft | 446 kts | 20° |
| 2026-05-03 23:02 | 40.19781 | 27.51207 | 26971 ft | 436 kts | 19° |
| 2026-05-03 23:02 | 40.22592 | 27.52343 | 26757 ft | 420 kts | 20° |
| 2026-05-03 23:03 | 40.25338 | 27.53470 | 26486 ft | 407 kts | 20° |
| 2026-05-03 23:03 | 40.28003 | 27.54588 | 26221 ft | 399 kts | 21° |
| 2026-05-03 23:03 | 40.30545 | 27.56008 | 25955 ft | 395 kts | 31° |
| 2026-05-03 23:03 | 40.32835 | 27.57938 | 25709 ft | 391 kts | 38° |
| 2026-05-03 23:04 | 40.35006 | 27.60059 | 25452 ft | 389 kts | 39° |
| 2026-05-03 23:04 | 40.37159 | 27.62189 | 25201 ft | 387 kts | 39° |
| 2026-05-03 23:04 | 40.39307 | 27.64303 | 24940 ft | 385 kts | 39° |
| 2026-05-03 23:04 | 40.41444 | 27.66397 | 24706 ft | 382 kts | 39° |
| 2026-05-03 23:05 | 40.43565 | 27.68477 | 24353 ft | 379 kts | 39° |
| 2026-05-03 23:05 | 40.45689 | 27.70508 | 23865 ft | 376 kts | 36° |
| 2026-05-03 23:05 | 40.48005 | 27.72106 | 23295 ft | 378 kts | 24° |
| 2026-05-03 23:05 | 40.50452 | 27.73319 | 22722 ft | 376 kts | 22° |
| 2026-05-03 23:06 | 40.52901 | 27.74488 | 22171 ft | 373 kts | 22° |
| 2026-05-03 23:06 | 40.55327 | 27.75668 | 21598 ft | 370 kts | 22° |
| 2026-05-03 23:06 | 40.57729 | 27.76865 | 21067 ft | 367 kts | 23° |
| 2026-05-03 23:06 | 40.60080 | 27.78047 | 20735 ft | 356 kts | 23° |
| 2026-05-03 23:07 | 40.62344 | 27.79185 | 20449 ft | 340 kts | 23° |
| 2026-05-03 23:07 | 40.64491 | 27.80288 | 20151 ft | 323 kts | 26° |
| 2026-05-03 23:07 | 40.66326 | 27.81836 | 19747 ft | 308 kts | 45° |
| 2026-05-03 23:07 | 40.67731 | 27.83917 | 19167 ft | 302 kts | 55° |
| 2026-05-03 23:08 | 40.68676 | 27.86358 | 18574 ft | 299 kts | 71° |
| 2026-05-03 23:08 | 40.69066 | 27.89044 | 17932 ft | 298 kts | 81° |
| 2026-05-03 23:08 | 40.69250 | 27.91723 | 17256 ft | 296 kts | 82° |
| 2026-05-03 23:08 | 40.69420 | 27.94423 | 16561 ft | 295 kts | 82° |
| 2026-05-03 23:09 | 40.69601 | 27.97125 | 16105 ft | 296 kts | 82° |
| 2026-05-03 23:09 | 40.69791 | 27.99815 | 15724 ft | 295 kts | 81° |
| 2026-05-03 23:09 | 40.69987 | 28.02504 | 15375 ft | 294 kts | 81° |
| 2026-05-03 23:09 | 40.70184 | 28.05186 | 15027 ft | 293 kts | 81° |
| 2026-05-03 23:10 | 40.70384 | 28.07856 | 14666 ft | 292 kts | 81° |
| 2026-05-03 23:10 | 40.70584 | 28.10508 | 14278 ft | 289 kts | 81° |
| 2026-05-03 23:10 | 40.70781 | 28.13149 | 13899 ft | 288 kts | 81° |
| 2026-05-03 23:10 | 40.70976 | 28.15754 | 13514 ft | 286 kts | 81° |
| 2026-05-03 23:11 | 40.71168 | 28.18349 | 13135 ft | 284 kts | 81° |
| 2026-05-03 23:11 | 40.71357 | 28.20899 | 12791 ft | 283 kts | 81° |
| 2026-05-03 23:11 | 40.71545 | 28.23470 | 12443 ft | 281 kts | 81° |
| 2026-05-03 23:11 | 40.71732 | 28.26027 | 12082 ft | 278 kts | 81° |
| 2026-05-03 23:12 | 40.71916 | 28.28561 | 11740 ft | 277 kts | 81° |
| 2026-05-03 23:12 | 40.72098 | 28.31091 | 11405 ft | 276 kts | 81° |
| 2026-05-03 23:12 | 40.72279 | 28.33601 | 11083 ft | 275 kts | 81° |
| 2026-05-03 23:12 | 40.72457 | 28.36101 | 10789 ft | 273 kts | 81° |
| 2026-05-03 23:13 | 40.72635 | 28.38582 | 10592 ft | 272 kts | 80° |
| 2026-05-03 23:13 | 40.72812 | 28.41055 | 10409 ft | 266 kts | 80° |
| 2026-05-03 23:13 | 40.72980 | 28.43437 | 10257 ft | 256 kts | 80° |
| 2026-05-03 23:13 | 40.73144 | 28.45734 | 10082 ft | 247 kts | 79° |
| 2026-05-03 23:14 | 40.73304 | 28.47942 | 9748 ft | 244 kts | 79° |
| 2026-05-03 23:14 | 40.73463 | 28.50163 | 9396 ft | 242 kts | 79° |
| 2026-05-03 23:14 | 40.73623 | 28.52392 | 9076 ft | 241 kts | 80° |
| 2026-05-03 23:14 | 40.73781 | 28.54589 | 8781 ft | 240 kts | 80° |
| 2026-05-03 23:15 | 40.73938 | 28.56781 | 8488 ft | 239 kts | 80° |
| 2026-05-03 23:15 | 40.74093 | 28.58960 | 8220 ft | 238 kts | 80° |
| 2026-05-03 23:15 | 40.74244 | 28.61102 | 7963 ft | 237 kts | 79° |
| 2026-05-03 23:15 | 40.74397 | 28.63255 | 7702 ft | 236 kts | 79° |
| 2026-05-03 23:16 | 40.74548 | 28.65408 | 7439 ft | 235 kts | 80° |
| 2026-05-03 23:16 | 40.74697 | 28.67541 | 7166 ft | 233 kts | 79° |
| 2026-05-03 23:16 | 40.74845 | 28.69661 | 6876 ft | 231 kts | 79° |
| 2026-05-03 23:16 | 40.74992 | 28.71761 | 6591 ft | 230 kts | 79° |
| 2026-05-03 23:17 | 40.75136 | 28.73846 | 6340 ft | 225 kts | 79° |
| 2026-05-03 23:17 | 40.75274 | 28.75865 | 6130 ft | 218 kts | 79° |
| 2026-05-03 23:17 | 40.75411 | 28.77839 | 5846 ft | 216 kts | 79° |
| 2026-05-03 23:17 | 40.75545 | 28.79808 | 5543 ft | 215 kts | 79° |
| 2026-05-03 23:18 | 40.75679 | 28.81772 | 5286 ft | 215 kts | 78° |
| 2026-05-03 23:18 | 40.75814 | 28.83726 | 5022 ft | 214 kts | 78° |
| 2026-05-03 23:18 | 40.75947 | 28.85671 | 4748 ft | 211 kts | 78° |
| 2026-05-03 23:18 | 40.76075 | 28.87581 | 4518 ft | 204 kts | 78° |
| 2026-05-03 23:19 | 40.76210 | 28.89423 | 4248 ft | 200 kts | 77° |
| 2026-05-03 23:19 | 40.76354 | 28.91223 | 4056 ft | 199 kts | 77° |
| 2026-05-03 23:19 | 40.76491 | 28.93040 | 3966 ft | 199 kts | 77° |
| 2026-05-03 23:19 | 40.76615 | 28.94857 | 3972 ft | 199 kts | 77° |
| 2026-05-03 23:20 | 40.76723 | 28.96680 | 3996 ft | 201 kts | 78° |
| 2026-05-03 23:20 | 40.76834 | 28.98518 | 3997 ft | 198 kts | 78° |
| 2026-05-03 23:20 | 40.76945 | 29.00254 | 4016 ft | 185 kts | 76° |
| 2026-05-03 23:20 | 40.77270 | 29.01856 | 4026 ft | 178 kts | 58° |
| 2026-05-03 23:21 | 40.77986 | 29.03154 | 3837 ft | 174 kts | 47° |
| 2026-05-03 23:21 | 40.78735 | 29.04391 | 3590 ft | 170 kts | 47° |
| 2026-05-03 23:21 | 40.79447 | 29.05591 | 3399 ft | 160 kts | 47° |
| 2026-05-03 23:21 | 40.80117 | 29.06718 | 3222 ft | 153 kts | 48° |
| 2026-05-03 23:22 | 40.81325 | 29.08763 | 2973 ft | 132 kts | 47° |
| 2026-05-03 23:22 | 40.81816 | 29.09707 | 2970 ft | 114 kts | 50° |
| 2026-05-03 23:22 | 40.82222 | 29.10589 | 2983 ft | 112 kts | 52° |
| 2026-05-03 23:23 | 40.82608 | 29.11488 | 2990 ft | 113 kts | 53° |
| 2026-05-03 23:23 | 40.82979 | 29.12395 | 2996 ft | 114 kts | 53° |
| 2026-05-03 23:23 | 40.83354 | 29.13311 | 2998 ft | 114 kts | 54° |
| 2026-05-03 23:23 | 40.83710 | 29.14247 | 3002 ft | 114 kts | 54° |
| 2026-05-03 23:24 | 40.84059 | 29.15186 | 2997 ft | 114 kts | 55° |
| 2026-05-03 23:24 | 40.84407 | 29.16127 | 2893 ft | 114 kts | 54° |
| 2026-05-03 23:24 | 40.84753 | 29.17066 | 2729 ft | 114 kts | 54° |
| 2026-05-03 23:24 | 40.85100 | 29.18008 | 2547 ft | 114 kts | 53° |
| 2026-05-03 23:25 | 40.85448 | 29.18949 | 2370 ft | 114 kts | 53° |
| 2026-05-03 23:25 | 40.85797 | 29.19898 | 2173 ft | 115 kts | 53° |
| 2026-05-03 23:25 | 40.86143 | 29.20853 | 1977 ft | 115 kts | 53° |
| 2026-05-03 23:25 | 40.86497 | 29.21820 | 1802 ft | 118 kts | 53° |
| 2026-05-03 23:26 | 40.86845 | 29.22811 | 1648 ft | 119 kts | 52° |
| 2026-05-03 23:26 | 40.87204 | 29.23797 | 1486 ft | 118 kts | 53° |
| 2026-05-03 23:26 | 40.87574 | 29.24750 | 1268 ft | 118 kts | 53° |
| 2026-05-03 23:26 | 40.87952 | 29.25729 | 1064 ft | 122 kts | 57° |
| 2026-05-03 23:27 | 40.88313 | 29.26726 | 846 ft | 118 kts | 58° |
| 2026-05-03 23:27 | 40.88661 | 29.27714 | 676 ft | 119 kts | 56° |
| 2026-05-03 23:27 | 40.89032 | 29.28687 | 482 ft | 120 kts | 60° |
| 2026-05-03 23:27 | 40.89398 | 29.29684 | 333 ft | 120 kts | 59° |
| 2026-05-03 23:28 | 40.89718 | 29.30547 | 325 ft | 83 kts | 64° |
| 2026-05-03 23:28 | 40.89892 | 29.31019 | 324 ft | 15 kts | 63° |
| 2026-05-03 23:28 | 40.89910 | 29.31063 | 325 ft | 6 kts | 62° |
| 2026-05-03 23:28 | 40.89933 | 29.31121 | 324 ft | 8 kts | 61° |
| 2026-05-03 23:29 | 40.89978 | 29.31187 | 324 ft | 11 kts | 45° |
| 2026-05-03 23:29 | 40.90044 | 29.31267 | 325 ft | 14 kts | 36° |
| 2026-05-03 23:29 | 40.90081 | 29.31303 | 325 ft | 7 kts | 35° |
| 2026-05-03 23:29 | 40.90127 | 29.31344 | 326 ft | 9 kts | 32° |
| 2026-05-03 23:30 | 40.90189 | 29.31397 | 323 ft | 12 kts | 36° |
| 2026-05-03 23:30 | 40.90250 | 29.31458 | 326 ft | 6 kts | 39° |
| 2026-05-03 23:30 | 40.90288 | 29.31497 | 323 ft | 8 kts | 27° |
| 2026-05-03 23:30 | 40.90351 | 29.31477 | 326 ft | 11 kts | 333° |
| 2026-05-03 23:31 | 40.90410 | 29.31439 | 325 ft | 4 kts | 335° |
| 2026-05-03 23:31 | 40.90446 | 29.31440 | 326 ft | 7 kts | 42° |
| 2026-05-03 23:31 | 40.90474 | 29.31508 | 325 ft | 10 kts | 62° |
| 2026-05-03 23:31 | 40.90509 | 29.31599 | 325 ft | 12 kts | 64° |
| 2026-05-03 23:32 | 40.90539 | 29.31680 | 326 ft | 5 kts | 64° |
| 2026-05-03 23:32 | 40.90557 | 29.31730 | 325 ft | 7 kts | 64° |
| 2026-05-03 23:32 | 40.90570 | 29.31757 | 325 ft | 5 kts | 36° |
| 2026-05-03 23:32 | 40.90599 | 29.31758 | 326 ft | 1 kts | 344° |
| 2026-05-03 23:33 | 40.90614 | 29.31749 | 326 ft | 4 kts | 335° |
| 2026-05-03 23:33 | 40.90629 | 29.31740 | 326 ft | 3 kts | 334° |
| 2026-05-03 23:33 | 40.90634 | 29.31736 | 325 ft | 1 kts | 334° |
| 2026-05-03 23:33 | 40.90643 | 29.31731 | 325 ft | 0 kts | 334° |
| 2026-05-03 23:34 | 40.90644 | 29.31730 | 324 ft | 0 kts | 334° |